PWSweather.com
Personal Weather Stations
Station Observations
STAMB2007
Stambolijski, StambolijskiBG 4210

StambolijskiStambolijskiBG 4210

Lat: 42.12878418, Lon: 24.53075409

Elevation: 620

Station Type: LaCrosse 2350

http://www.vremeto.org/vremeto/index1.htm

High Low Average
Temperature 34.3°F1.3°C 24.3°F-4.3°C 28.7°F-1.8°C
Dew Point 27.4°F-2.6°C 19.6°F-6.9°C 22.9°F-5.1°C
Winds Calm Calm Calm Calm Calm WNWCalm WNW
Wind Gusts -- -- --
Humidity 82% 74% 78%
Pressure 30.42 in1030.1 mb 30.10 in1019.3 mb -
Precipitation 0.02 in0.5 mm - -
Hour Temp Dew Point Humidity Winds Wind Gusts Pressure Precip Precip Rate Daily Precip Total
12:00 AM 28.8°F-1.8°C 23.4°F-4.8°C 80% Calm Calm -- 30.10 in1019.3 mb 0.00 in0.0 mm 0.00 in/hr0.0 mm/hr 0.00 in0.0 mm
12:10 AM 28.8°F-1.8°C 23.1°F-4.9°C 79% Calm Calm -- 30.10 in1019.3 mb 0.00 in0.0 mm 0.00 in/hr0.0 mm/hr 0.00 in0.0 mm
12:20 AM 28.8°F-1.8°C 23.1°F-4.9°C 79% Calm Calm -- 30.10 in1019.3 mb 0.00 in0.0 mm 0.00 in/hr0.0 mm/hr 0.00 in0.0 mm
12:30 AM 28.8°F-1.8°C 23.4°F-4.8°C 80% Calm Calm -- 30.10 in1019.3 mb 0.00 in0.0 mm 0.00 in/hr0.0 mm/hr 0.00 in0.0 mm
12:40 AM 28.9°F-1.7°C 23.2°F-4.9°C 79% Calm Calm -- 30.10 in1019.3 mb 0.00 in0.0 mm 0.00 in/hr0.0 mm/hr 0.00 in0.0 mm
12:50 AM 28.9°F-1.7°C 23.2°F-4.9°C 79% Calm Calm -- 30.11 in1019.6 mb 0.00 in0.0 mm 0.00 in/hr0.0 mm/hr 0.00 in0.0 mm
01:00 AM 28.9°F-1.7°C 23.5°F-4.7°C 80% Calm Calm -- 30.11 in1019.6 mb 0.00 in0.0 mm 0.00 in/hr0.0 mm/hr 0.00 in0.0 mm
01:10 AM 28.9°F-1.7°C 23.5°F-4.7°C 80% Calm Calm -- 30.11 in1019.6 mb 0.00 in0.0 mm 0.00 in/hr0.0 mm/hr 0.00 in0.0 mm
01:20 AM 29.1°F-1.6°C 23.4°F-4.8°C 79% Calm Calm -- 30.11 in1019.6 mb 0.00 in0.0 mm 0.00 in/hr0.0 mm/hr 0.00 in0.0 mm
01:30 AM 29.1°F-1.6°C 23.4°F-4.8°C 79% Calm Calm -- 30.11 in1019.6 mb 0.00 in0.0 mm 0.00 in/hr0.0 mm/hr 0.00 in0.0 mm
01:40 AM 29.1°F-1.6°C 23.4°F-4.8°C 79% Calm Calm -- 30.11 in1019.6 mb 0.00 in0.0 mm 0.00 in/hr0.0 mm/hr 0.00 in0.0 mm
01:50 AM 29.3°F-1.5°C 23.6°F-4.7°C 79% Calm Calm -- 30.11 in1019.6 mb 0.00 in0.0 mm 0.00 in/hr0.0 mm/hr 0.00 in0.0 mm
02:00 AM 29.3°F-1.5°C 23.6°F-4.7°C 79% Calm Calm -- 30.12 in1020.0 mb 0.00 in0.0 mm 0.00 in/hr0.0 mm/hr 0.00 in0.0 mm
02:10 AM 29.5°F-1.4°C 23.5°F-4.7°C 78% Calm Calm -- 30.12 in1020.0 mb 0.00 in0.0 mm 0.00 in/hr0.0 mm/hr 0.00 in0.0 mm
02:20 AM 29.5°F-1.4°C 23.5°F-4.7°C 78% Calm Calm -- 30.12 in1020.0 mb 0.00 in0.0 mm 0.00 in/hr0.0 mm/hr 0.00 in0.0 mm
02:30 AM 29.5°F-1.4°C 23.8°F-4.6°C 79% Calm Calm -- 30.13 in1020.3 mb 0.00 in0.0 mm 0.00 in/hr0.0 mm/hr 0.00 in0.0 mm
02:40 AM 29.5°F-1.4°C 23.8°F-4.6°C 79% Calm Calm -- 30.13 in1020.3 mb 0.00 in0.0 mm 0.00 in/hr0.0 mm/hr 0.00 in0.0 mm
02:50 AM 29.3°F-1.5°C 23.6°F-4.7°C 79% Calm Calm -- 30.14 in1020.7 mb 0.00 in0.0 mm 0.00 in/hr0.0 mm/hr 0.00 in0.0 mm
03:00 AM 29.3°F-1.5°C 23.6°F-4.7°C 79% Calm Calm -- 30.14 in1020.7 mb 0.00 in0.0 mm 0.00 in/hr0.0 mm/hr 0.00 in0.0 mm
03:10 AM 29.3°F-1.5°C 23.6°F-4.7°C 79% Calm Calm -- 30.14 in1020.7 mb 0.00 in0.0 mm 0.00 in/hr0.0 mm/hr 0.00 in0.0 mm
03:20 AM 29.1°F-1.6°C 23.1°F-4.9°C 78% Calm Calm -- 30.14 in1020.7 mb 0.00 in0.0 mm 0.00 in/hr0.0 mm/hr 0.00 in0.0 mm
03:30 AM 29.3°F-1.5°C 23.3°F-4.8°C 78% Calm Calm -- 30.14 in1020.7 mb 0.00 in0.0 mm 0.00 in/hr0.0 mm/hr 0.00 in0.0 mm
03:40 AM 29.5°F-1.4°C 23.5°F-4.7°C 78% Calm Calm -- 30.14 in1020.7 mb 0.00 in0.0 mm 0.00 in/hr0.0 mm/hr 0.00 in0.0 mm
03:50 AM 29.5°F-1.4°C 23.5°F-4.7°C 78% Calm Calm -- 30.14 in1020.7 mb 0.00 in0.0 mm 0.00 in/hr0.0 mm/hr 0.00 in0.0 mm
04:00 AM 29.5°F-1.4°C 23.5°F-4.7°C 78% Calm Calm -- 30.15 in1021.0 mb 0.00 in0.0 mm 0.00 in/hr0.0 mm/hr 0.00 in0.0 mm
04:10 AM 29.5°F-1.4°C 23.2°F-4.9°C 77% Calm Calm -- 30.15 in1021.0 mb 0.00 in0.0 mm 0.00 in/hr0.0 mm/hr 0.00 in0.0 mm
04:20 AM 29.4°F-1.4°C 23.1°F-4.9°C 77% Calm Calm -- 30.15 in1021.0 mb 0.00 in0.0 mm 0.00 in/hr0.0 mm/hr 0.00 in0.0 mm
04:30 AM 29.5°F-1.4°C 23.2°F-4.9°C 77% Calm Calm -- 30.15 in1021.0 mb 0.00 in0.0 mm 0.00 in/hr0.0 mm/hr 0.00 in0.0 mm
04:40 AM 29.5°F-1.4°C 23.2°F-4.9°C 77% Calm Calm -- 30.15 in1021.0 mb 0.00 in0.0 mm 0.00 in/hr0.0 mm/hr 0.00 in0.0 mm
04:50 AM 29.7°F-1.3°C 23.6°F-4.7°C 78% Calm Calm -- 30.15 in1021.0 mb 0.00 in0.0 mm 0.00 in/hr0.0 mm/hr 0.00 in0.0 mm
05:00 AM 29.7°F-1.3°C 23.6°F-4.7°C 78% Calm Calm -- 30.15 in1021.0 mb 0.00 in0.0 mm 0.00 in/hr0.0 mm/hr 0.00 in0.0 mm
05:10 AM 29.7°F-1.3°C 23.6°F-4.7°C 78% Calm Calm -- 30.15 in1021.0 mb 0.00 in0.0 mm 0.00 in/hr0.0 mm/hr 0.00 in0.0 mm
05:20 AM 29.7°F-1.3°C 23.6°F-4.7°C 78% Calm Calm -- 30.16 in1021.3 mb 0.00 in0.0 mm 0.00 in/hr0.0 mm/hr 0.00 in0.0 mm
05:30 AM 29.8°F-1.2°C 23.8°F-4.6°C 78% Calm Calm -- 30.16 in1021.3 mb 0.00 in0.0 mm 0.00 in/hr0.0 mm/hr 0.00 in0.0 mm
05:40 AM 29.7°F-1.3°C 23.6°F-4.7°C 78% Calm Calm -- 30.16 in1021.3 mb 0.00 in0.0 mm 0.00 in/hr0.0 mm/hr 0.00 in0.0 mm
05:50 AM 29.5°F-1.4°C 23.5°F-4.7°C 78% Calm Calm -- 30.16 in1021.3 mb 0.00 in0.0 mm 0.00 in/hr0.0 mm/hr 0.00 in0.0 mm
06:00 AM 29.5°F-1.4°C 23.5°F-4.7°C 78% Calm Calm -- 30.16 in1021.3 mb 0.00 in0.0 mm 0.00 in/hr0.0 mm/hr 0.00 in0.0 mm
06:10 AM 29.3°F-1.5°C 23.3°F-4.8°C 78% Calm Calm -- 30.17 in1021.7 mb 0.00 in0.0 mm 0.00 in/hr0.0 mm/hr 0.00 in0.0 mm
06:20 AM 29.1°F-1.6°C 22.8°F-5.1°C 77% Calm Calm -- 30.16 in1021.3 mb 0.00 in0.0 mm 0.00 in/hr0.0 mm/hr 0.00 in0.0 mm
06:30 AM 29.1°F-1.6°C 22.8°F-5.1°C 77% Calm Calm -- 30.17 in1021.7 mb 0.00 in0.0 mm 0.00 in/hr0.0 mm/hr 0.00 in0.0 mm
06:40 AM 28.9°F-1.7°C 22.6°F-5.2°C 77% Calm Calm -- 30.17 in1021.7 mb 0.00 in0.0 mm 0.00 in/hr0.0 mm/hr 0.00 in0.0 mm
06:50 AM 28.6°F-1.9°C 22.3°F-5.4°C 77% Calm Calm -- 30.17 in1021.7 mb 0.00 in0.0 mm 0.00 in/hr0.0 mm/hr 0.00 in0.0 mm
07:00 AM 28.2°F-2.1°C 22.2°F-5.4°C 78% Calm Calm -- 30.17 in1021.7 mb 0.00 in0.0 mm 0.00 in/hr0.0 mm/hr 0.00 in0.0 mm
07:10 AM 28.0°F-2.2°C 22.1°F-5.5°C 78% Calm Calm -- 30.17 in1021.7 mb 0.00 in0.0 mm 0.00 in/hr0.0 mm/hr 0.00 in0.0 mm
07:20 AM 27.7°F-2.4°C 21.7°F-5.7°C 78% Calm Calm -- 30.18 in1022.0 mb 0.00 in0.0 mm 0.00 in/hr0.0 mm/hr 0.00 in0.0 mm
07:30 AM 27.6°F-2.4°C 21.6°F-5.8°C 78% Calm Calm -- 30.18 in1022.0 mb 0.00 in0.0 mm 0.00 in/hr0.0 mm/hr 0.00 in0.0 mm
07:40 AM 27.7°F-2.4°C 21.7°F-5.7°C 78% Calm Calm -- 30.17 in1021.7 mb 0.00 in0.0 mm 0.00 in/hr0.0 mm/hr 0.00 in0.0 mm
07:50 AM 27.7°F-2.4°C 21.7°F-5.7°C 78% Calm Calm -- 30.18 in1022.0 mb 0.00 in0.0 mm 0.00 in/hr0.0 mm/hr 0.00 in0.0 mm
08:00 AM 28.0°F-2.2°C 22.1°F-5.5°C 78% Calm Calm -- 30.18 in1022.0 mb 0.00 in0.0 mm 0.00 in/hr0.0 mm/hr 0.00 in0.0 mm
08:10 AM 28.2°F-2.1°C 22.2°F-5.4°C 78% Calm Calm -- 30.19 in1022.4 mb 0.00 in0.0 mm 0.00 in/hr0.0 mm/hr 0.00 in0.0 mm
08:20 AM 28.6°F-1.9°C 22.6°F-5.2°C 78% Calm Calm -- 30.19 in1022.4 mb 0.00 in0.0 mm 0.00 in/hr0.0 mm/hr 0.00 in0.0 mm
08:30 AM 28.9°F-1.7°C 22.9°F-5.1°C 78% Calm Calm -- 30.20 in1022.7 mb 0.00 in0.0 mm 0.00 in/hr0.0 mm/hr 0.00 in0.0 mm
08:40 AM 29.3°F-1.5°C 23.3°F-4.8°C 78% Calm Calm -- 30.20 in1022.7 mb 0.00 in0.0 mm 0.00 in/hr0.0 mm/hr 0.00 in0.0 mm
08:50 AM 29.7°F-1.3°C 23.7°F-4.6°C 78% Calm Calm -- 30.21 in1023.0 mb 0.00 in0.0 mm 0.00 in/hr0.0 mm/hr 0.00 in0.0 mm
09:00 AM 30.3°F-0.9°C 24.2°F-4.3°C 78% Calm Calm -- 30.22 in1023.4 mb 0.00 in0.0 mm 0.00 in/hr0.0 mm/hr 0.00 in0.0 mm
09:10 AM 30.7°F-0.7°C 24.7°F-4.1°C 78% Calm Calm -- 30.22 in1023.4 mb 0.00 in0.0 mm 0.00 in/hr0.0 mm/hr 0.00 in0.0 mm
09:20 AM 31.2°F-0.4°C 25.1°F-3.8°C 78% Calm Calm -- 30.22 in1023.4 mb 0.00 in0.0 mm 0.00 in/hr0.0 mm/hr 0.00 in0.0 mm
09:30 AM 31.8°F-0.1°C 25.7°F-3.5°C 78% Calm Calm -- 30.23 in1023.7 mb 0.00 in0.0 mm 0.00 in/hr0.0 mm/hr 0.00 in0.0 mm
09:40 AM 32.2°F0.1°C 26.1°F-3.3°C 78% Calm Calm -- 30.24 in1024.0 mb 0.00 in0.0 mm 0.00 in/hr0.0 mm/hr 0.00 in0.0 mm
09:50 AM 32.5°F0.3°C 26.1°F-3.3°C 77% Calm Calm -- 30.25 in1024.4 mb 0.00 in0.0 mm 0.00 in/hr0.0 mm/hr 0.00 in0.0 mm
10:00 AM 32.7°F0.4°C 26.0°F-3.3°C 76% Calm Calm -- 30.25 in1024.4 mb 0.00 in0.0 mm 0.00 in/hr0.0 mm/hr 0.00 in0.0 mm
10:10 AM 32.5°F0.3°C 25.8°F-3.4°C 76% Calm Calm -- 30.25 in1024.4 mb 0.00 in0.0 mm 0.00 in/hr0.0 mm/hr 0.00 in0.0 mm
10:20 AM 30.4°F-0.9°C 23.1°F-4.9°C 74% Calm Calm -- 30.26 in1024.7 mb 0.00 in0.0 mm 0.00 in/hr0.0 mm/hr 0.00 in0.0 mm
10:30 AM 28.1°F-2.2°C 21.2°F-6.0°C 75% Calm Calm -- 30.27 in1025.1 mb 0.00 in0.0 mm 0.00 in/hr0.0 mm/hr 0.00 in0.0 mm
10:40 AM 27.5°F-2.5°C 20.9°F-6.2°C 76% Calm Calm -- 30.27 in1025.1 mb 0.00 in0.0 mm 0.00 in/hr0.0 mm/hr 0.00 in0.0 mm
10:50 AM 27.7°F-2.4°C 21.7°F-5.7°C 78% Calm Calm -- 30.27 in1025.1 mb 0.00 in0.0 mm 0.00 in/hr0.0 mm/hr 0.00 in0.0 mm
11:00 AM 27.7°F-2.4°C 21.7°F-5.7°C 78% Calm Calm -- 30.27 in1025.1 mb 0.00 in0.0 mm 0.00 in/hr0.0 mm/hr 0.00 in0.0 mm
11:10 AM 27.3°F-2.6°C 21.4°F-5.9°C 78% Calm Calm -- 30.27 in1025.1 mb 0.00 in0.0 mm 0.00 in/hr0.0 mm/hr 0.00 in0.0 mm
11:20 AM 27.5°F-2.5°C 21.5°F-5.8°C 78% Calm Calm -- 30.27 in1025.1 mb 0.00 in0.0 mm 0.00 in/hr0.0 mm/hr 0.00 in0.0 mm
11:30 AM 27.5°F-2.5°C 21.8°F-5.7°C 79% Calm Calm -- 30.27 in1025.1 mb 0.00 in0.0 mm 0.00 in/hr0.0 mm/hr 0.00 in0.0 mm
11:40 AM 27.1°F-2.7°C 21.2°F-6.0°C 78% Calm Calm -- 30.27 in1025.1 mb 0.00 in0.0 mm 0.00 in/hr0.0 mm/hr 0.00 in0.0 mm
11:50 AM 27.1°F-2.7°C 21.5°F-5.8°C 79% Calm Calm -- 30.27 in1025.1 mb 0.00 in0.0 mm 0.00 in/hr0.0 mm/hr 0.00 in0.0 mm
12:00 PM 27.3°F-2.6°C 21.6°F-5.8°C 79% Calm Calm -- 30.27 in1025.1 mb 0.00 in0.0 mm 0.00 in/hr0.0 mm/hr 0.00 in0.0 mm
12:10 PM 27.7°F-2.4°C 22.0°F-5.6°C 79% Calm Calm -- 30.27 in1025.1 mb 0.00 in0.0 mm 0.00 in/hr0.0 mm/hr 0.00 in0.0 mm
12:20 PM 28.2°F-2.1°C 22.8°F-5.1°C 80% Calm Calm -- 30.26 in1024.7 mb 0.00 in0.0 mm 0.00 in/hr0.0 mm/hr 0.00 in0.0 mm
12:30 PM 29.1°F-1.6°C 23.7°F-4.6°C 80% Calm Calm -- 30.26 in1024.7 mb 0.00 in0.0 mm 0.00 in/hr0.0 mm/hr 0.00 in0.0 mm
12:40 PM 30.0°F-1.1°C 24.6°F-4.1°C 80% Calm Calm -- 30.25 in1024.4 mb 0.00 in0.0 mm 0.00 in/hr0.0 mm/hr 0.00 in0.0 mm
12:50 PM 30.9°F-0.6°C 25.5°F-3.6°C 80% Calm Calm -- 30.25 in1024.4 mb 0.00 in0.0 mm 0.00 in/hr0.0 mm/hr 0.00 in0.0 mm
01:00 PM 31.4°F-0.3°C 26.0°F-3.3°C 80% Calm Calm -- 30.25 in1024.4 mb 0.00 in0.0 mm 0.00 in/hr0.0 mm/hr 0.00 in0.0 mm
01:10 PM 32.2°F0.1°C 26.4°F-3.1°C 79% Calm Calm -- 30.25 in1024.4 mb 0.00 in0.0 mm 0.00 in/hr0.0 mm/hr 0.00 in0.0 mm
01:20 PM 33.3°F0.7°C 27.1°F-2.7°C 78% Calm Calm -- 30.26 in1024.7 mb 0.00 in0.0 mm 0.00 in/hr0.0 mm/hr 0.00 in0.0 mm
01:30 PM 33.8°F1.0°C 27.4°F-2.6°C 77% Calm Calm -- 30.25 in1024.4 mb 0.00 in0.0 mm 0.00 in/hr0.0 mm/hr 0.00 in0.0 mm
01:50 PM 34.2°F1.2°C 27.1°F-2.7°C 75% Calm Calm -- 30.25 in1024.4 mb 0.00 in0.0 mm 0.00 in/hr0.0 mm/hr 0.00 in0.0 mm
02:00 PM 33.6°F0.9°C 26.5°F-3.1°C 75% Calm Calm -- 30.26 in1024.7 mb 0.00 in0.0 mm 0.00 in/hr0.0 mm/hr 0.00 in0.0 mm
02:10 PM 32.9°F0.5°C 25.5°F-3.6°C 74% Calm Calm -- 30.26 in1024.7 mb 0.00 in0.0 mm 0.00 in/hr0.0 mm/hr 0.00 in0.0 mm
02:20 PM 31.8°F-0.1°C 24.8°F-4.0°C 75% Calm Calm -- 30.26 in1024.7 mb 0.00 in0.0 mm 0.00 in/hr0.0 mm/hr 0.00 in0.0 mm
02:30 PM 31.8°F-0.1°C 24.8°F-4.0°C 75% Calm Calm -- 30.27 in1025.1 mb 0.00 in0.0 mm 0.00 in/hr0.0 mm/hr 0.00 in0.0 mm
02:40 PM 32.3°F0.2°C 25.6°F-3.6°C 76% Calm Calm -- 30.27 in1025.1 mb 0.00 in0.0 mm 0.00 in/hr0.0 mm/hr 0.00 in0.0 mm
02:50 PM 32.9°F0.5°C 26.2°F-3.2°C 76% Calm Calm -- 30.26 in1024.7 mb 0.00 in0.0 mm 0.00 in/hr0.0 mm/hr 0.00 in0.0 mm
03:00 PM 33.4°F0.8°C 27.0°F-2.8°C 77% Calm Calm -- 30.26 in1024.7 mb 0.00 in0.0 mm 0.00 in/hr0.0 mm/hr 0.00 in0.0 mm
03:10 PM 33.8°F1.0°C 27.0°F-2.8°C 76% Calm Calm -- 30.25 in1024.4 mb 0.00 in0.0 mm 0.00 in/hr0.0 mm/hr 0.00 in0.0 mm
03:20 PM 34.0°F1.1°C 27.2°F-2.7°C 76% Calm Calm -- 30.26 in1024.7 mb 0.00 in0.0 mm 0.00 in/hr0.0 mm/hr 0.00 in0.0 mm
03:30 PM 34.3°F1.3°C 27.2°F-2.7°C 75% Calm Calm -- 30.27 in1025.1 mb 0.00 in0.0 mm 0.00 in/hr0.0 mm/hr 0.00 in0.0 mm
03:40 PM 33.1°F0.6°C 25.7°F-3.5°C 74% Calm Calm -- 30.28 in1025.4 mb 0.00 in0.0 mm 0.00 in/hr0.0 mm/hr 0.00 in0.0 mm
03:50 PM 32.7°F0.4°C 25.7°F-3.5°C 75% Calm Calm -- 30.29 in1025.7 mb 0.00 in0.0 mm 0.00 in/hr0.0 mm/hr 0.00 in0.0 mm
04:00 PM 32.7°F0.4°C 25.7°F-3.5°C 75% Calm Calm -- 30.29 in1025.7 mb 0.00 in0.0 mm 0.00 in/hr0.0 mm/hr 0.00 in0.0 mm
04:10 PM 32.4°F0.2°C 25.3°F-3.7°C 75% Calm Calm -- 30.29 in1025.7 mb 0.02 in0.5 mm 0.12 in/hr3.0 mm/hr 0.02 in0.5 mm
04:20 PM 31.8°F-0.1°C 24.8°F-4.0°C 75% Calm Calm -- 30.29 in1025.7 mb 0.00 in0.0 mm 0.00 in/hr0.0 mm/hr 0.02 in0.5 mm
04:30 PM 31.4°F-0.3°C 24.4°F-4.2°C 75% Calm Calm -- 30.30 in1026.1 mb 0.00 in0.0 mm 0.00 in/hr0.0 mm/hr 0.02 in0.5 mm
04:40 PM 30.7°F-0.7°C 23.8°F-4.6°C 75% Calm Calm -- 30.30 in1026.1 mb 0.00 in0.0 mm 0.00 in/hr0.0 mm/hr 0.02 in0.5 mm
04:50 PM 30.6°F-0.8°C 23.9°F-4.5°C 76% Calm Calm -- 30.30 in1026.1 mb 0.00 in0.0 mm 0.00 in/hr0.0 mm/hr 0.02 in0.5 mm
05:00 PM 30.7°F-0.7°C 24.0°F-4.4°C 76% Calm Calm -- 30.31 in1026.4 mb 0.00 in0.0 mm 0.00 in/hr0.0 mm/hr 0.02 in0.5 mm
05:10 PM 29.8°F-1.2°C 22.9°F-5.1°C 75% Calm Calm -- 30.31 in1026.4 mb 0.00 in0.0 mm 0.00 in/hr0.0 mm/hr 0.02 in0.5 mm
05:20 PM 28.2°F-2.1°C 21.3°F-5.9°C 75% Calm Calm -- 30.32 in1026.8 mb 0.00 in0.0 mm 0.00 in/hr0.0 mm/hr 0.02 in0.5 mm
05:30 PM 27.1°F-2.7°C 20.6°F-6.3°C 76% Calm Calm -- 30.32 in1026.8 mb 0.00 in0.0 mm 0.00 in/hr0.0 mm/hr 0.02 in0.5 mm
05:40 PM 26.8°F-2.9°C 20.5°F-6.4°C 77% Calm Calm -- 30.33 in1027.1 mb 0.00 in0.0 mm 0.00 in/hr0.0 mm/hr 0.02 in0.5 mm
05:50 PM 26.4°F-3.1°C 20.5°F-6.4°C 78% Calm Calm -- 30.33 in1027.1 mb 0.00 in0.0 mm 0.00 in/hr0.0 mm/hr 0.02 in0.5 mm
06:00 PM 26.1°F-3.3°C 20.2°F-6.6°C 78% Calm Calm -- 30.34 in1027.4 mb 0.00 in0.0 mm 0.00 in/hr0.0 mm/hr 0.02 in0.5 mm
06:10 PM 25.9°F-3.4°C 20.2°F-6.6°C 79% Calm Calm -- 30.34 in1027.4 mb 0.00 in0.0 mm 0.00 in/hr0.0 mm/hr 0.02 in0.5 mm
06:20 PM 25.9°F-3.4°C 20.3°F-6.5°C 79% Calm Calm -- 30.35 in1027.8 mb 0.00 in0.0 mm 0.00 in/hr0.0 mm/hr 0.02 in0.5 mm
06:30 PM 25.9°F-3.4°C 20.6°F-6.3°C 80% Calm Calm -- 30.35 in1027.8 mb 0.00 in0.0 mm 0.00 in/hr0.0 mm/hr 0.02 in0.5 mm
06:40 PM 26.2°F-3.2°C 20.9°F-6.2°C 80% Calm Calm -- 30.36 in1028.1 mb 0.00 in0.0 mm 0.00 in/hr0.0 mm/hr 0.02 in0.5 mm
06:50 PM 26.2°F-3.2°C 20.9°F-6.2°C 80% Calm Calm -- 30.36 in1028.1 mb 0.00 in0.0 mm 0.00 in/hr0.0 mm/hr 0.02 in0.5 mm
07:00 PM 26.2°F-3.2°C 20.9°F-6.2°C 80% Calm Calm -- 30.36 in1028.1 mb 0.00 in0.0 mm 0.00 in/hr0.0 mm/hr 0.02 in0.5 mm
07:10 PM 25.9°F-3.4°C 20.6°F-6.3°C 80% Calm Calm -- 30.37 in1028.4 mb 0.00 in0.0 mm 0.00 in/hr0.0 mm/hr 0.02 in0.5 mm
07:20 PM 25.7°F-3.5°C 20.4°F-6.4°C 80% Calm Calm -- 30.37 in1028.4 mb 0.00 in0.0 mm 0.00 in/hr0.0 mm/hr 0.02 in0.5 mm
07:30 PM 25.3°F-3.7°C 20.3°F-6.5°C 81% Calm Calm -- 30.38 in1028.8 mb 0.00 in0.0 mm 0.00 in/hr0.0 mm/hr 0.02 in0.5 mm
07:40 PM 25.0°F-3.9°C 20.0°F-6.7°C 81% Calm Calm -- 30.38 in1028.8 mb 0.00 in0.0 mm 0.00 in/hr0.0 mm/hr 0.02 in0.5 mm
07:50 PM 25.0°F-3.9°C 20.0°F-6.7°C 81% Calm Calm -- 30.38 in1028.8 mb 0.00 in0.0 mm 0.00 in/hr0.0 mm/hr 0.02 in0.5 mm
08:00 PM 24.6°F-4.1°C 19.6°F-6.9°C 81% Calm Calm -- 30.38 in1028.8 mb 0.00 in0.0 mm 0.00 in/hr0.0 mm/hr 0.02 in0.5 mm
08:10 PM 24.6°F-4.1°C 19.9°F-6.7°C 82% Calm Calm -- 30.38 in1028.8 mb 0.00 in0.0 mm 0.00 in/hr0.0 mm/hr 0.02 in0.5 mm
08:20 PM 25.0°F-3.9°C 20.3°F-6.5°C 82% Calm Calm -- 30.39 in1029.1 mb 0.00 in0.0 mm 0.00 in/hr0.0 mm/hr 0.02 in0.5 mm
08:30 PM 25.2°F-3.8°C 20.4°F-6.4°C 82% Calm Calm -- 30.39 in1029.1 mb 0.00 in0.0 mm 0.00 in/hr0.0 mm/hr 0.02 in0.5 mm
08:40 PM 25.3°F-3.7°C 20.6°F-6.3°C 82% Calm Calm -- 30.39 in1029.1 mb 0.00 in0.0 mm 0.00 in/hr0.0 mm/hr 0.02 in0.5 mm
08:50 PM 25.5°F-3.6°C 20.8°F-6.2°C 82% Calm Calm -- 30.39 in1029.1 mb 0.00 in0.0 mm 0.00 in/hr0.0 mm/hr 0.02 in0.5 mm
09:00 PM 25.5°F-3.6°C 20.8°F-6.2°C 82% Calm Calm -- 30.39 in1029.1 mb 0.00 in0.0 mm 0.00 in/hr0.0 mm/hr 0.02 in0.5 mm
09:10 PM 25.5°F-3.6°C 20.8°F-6.2°C 82% Calm Calm -- 30.39 in1029.1 mb 0.00 in0.0 mm 0.00 in/hr0.0 mm/hr 0.02 in0.5 mm
09:20 PM 25.5°F-3.6°C 20.8°F-6.2°C 82% Calm Calm -- 30.39 in1029.1 mb 0.00 in0.0 mm 0.00 in/hr0.0 mm/hr 0.02 in0.5 mm
09:30 PM 25.5°F-3.6°C 20.8°F-6.2°C 82% Calm Calm -- 30.40 in1029.5 mb 0.00 in0.0 mm 0.00 in/hr0.0 mm/hr 0.02 in0.5 mm
09:40 PM 25.5°F-3.6°C 20.8°F-6.2°C 82% Calm Calm -- 30.39 in1029.1 mb 0.00 in0.0 mm 0.00 in/hr0.0 mm/hr 0.02 in0.5 mm
09:50 PM 25.5°F-3.6°C 20.8°F-6.2°C 82% Calm Calm -- 30.39 in1029.1 mb 0.00 in0.0 mm 0.00 in/hr0.0 mm/hr 0.02 in0.5 mm
10:00 PM 25.5°F-3.6°C 20.8°F-6.2°C 82% Calm Calm -- 30.40 in1029.5 mb 0.00 in0.0 mm 0.00 in/hr0.0 mm/hr 0.02 in0.5 mm
10:10 PM 25.7°F-3.5°C 21.0°F-6.1°C 82% Calm Calm -- 30.40 in1029.5 mb 0.00 in0.0 mm 0.00 in/hr0.0 mm/hr 0.02 in0.5 mm
10:20 PM 25.7°F-3.5°C 21.0°F-6.1°C 82% Calm Calm -- 30.40 in1029.5 mb 0.00 in0.0 mm 0.00 in/hr0.0 mm/hr 0.02 in0.5 mm
10:30 PM 25.8°F-3.4°C 21.1°F-6.1°C 82% Calm Calm -- 30.40 in1029.5 mb 0.00 in0.0 mm 0.00 in/hr0.0 mm/hr 0.02 in0.5 mm
10:40 PM 25.9°F-3.4°C 21.1°F-6.1°C 82% Calm Calm -- 30.40 in1029.5 mb 0.00 in0.0 mm 0.00 in/hr0.0 mm/hr 0.02 in0.5 mm
10:50 PM 25.7°F-3.5°C 21.0°F-6.1°C 82% Calm Calm -- 30.41 in1029.8 mb 0.00 in0.0 mm 0.00 in/hr0.0 mm/hr 0.02 in0.5 mm
11:00 PM 25.5°F-3.6°C 20.8°F-6.2°C 82% Calm Calm -- 30.40 in1029.5 mb 0.00 in0.0 mm 0.00 in/hr0.0 mm/hr 0.02 in0.5 mm
11:10 PM 25.3°F-3.7°C 20.6°F-6.3°C 82% Calm Calm -- 30.41 in1029.8 mb 0.00 in0.0 mm 0.00 in/hr0.0 mm/hr 0.02 in0.5 mm
11:20 PM 25.0°F-3.9°C 20.3°F-6.5°C 82% Calm Calm -- 30.41 in1029.8 mb 0.00 in0.0 mm 0.00 in/hr0.0 mm/hr 0.02 in0.5 mm
11:30 PM 24.6°F-4.1°C 19.9°F-6.7°C 82% Calm Calm -- 30.41 in1029.8 mb 0.00 in0.0 mm 0.00 in/hr0.0 mm/hr 0.02 in0.5 mm
11:40 PM 24.4°F-4.2°C 19.7°F-6.8°C 82% Calm Calm -- 30.42 in1030.1 mb 0.00 in0.0 mm 0.00 in/hr0.0 mm/hr 0.02 in0.5 mm
11:50 PM 24.3°F-4.3°C 19.6°F-6.9°C 82% Calm Calm -- 30.42 in1030.1 mb 0.00 in0.0 mm 0.00 in/hr0.0 mm/hr 0.02 in0.5 mm